Time;durP1;ratioP1;P1;durP2;ratioP2;P2;SDS_P1;SDS_P2;PMS_P1;PMS_P2;Temp;Humidity;BMP_temperature;BMP_pressure;BME280_temperature;BME280_humidity;BME280_pressure;Samples;Min_cycle;Max_cycle;Signal;HPM_P1;HPM_P2
2023/05/20 00:00:54;;;;;;;7.95;4.18;;;;;;;17.60;100.00;101036.03;2090434;28;20048;-69
2023/05/20 00:02:16;;;;;;;7.22;3.97;;;;;;;17.60;100.00;101030.72;2101581;28;20082;-69
2023/05/20 00:03:37;;;;;;;7.18;4.28;;;;;;;17.60;100.00;101032.50;2082756;28;20049;-69
2023/05/20 00:05:00;;;;;;;8.32;3.97;;;;;;;17.60;100.00;101035.16;2100765;28;20573;-70
2023/05/20 00:06:21;;;;;;;9.43;3.90;;;;;;;17.59;100.00;101039.63;2100459;28;20660;-69
2023/05/20 00:07:43;;;;;;;8.60;4.13;;;;;;;17.58;100.00;101032.53;2085621;28;20049;-69
2023/05/20 00:09:04;;;;;;;7.32;3.65;;;;;;;17.58;100.00;101036.97;2087387;28;20413;-69
2023/05/20 00:10:27;;;;;;;9.15;4.28;;;;;;;17.56;100.00;101033.44;2094817;28;20063;-69
2023/05/20 00:11:50;;;;;;;7.65;3.80;;;;;;;17.56;100.00;101030.75;2111564;28;20051;-70
2023/05/20 00:13:11;;;;;;;6.47;3.80;;;;;;;17.56;100.00;101028.97;2100435;28;20056;-70
2023/05/20 00:14:35;;;;;;;11.35;3.85;;;;;;;17.57;100.00;101040.53;2097345;28;20491;-70
2023/05/20 00:15:56;;;;;;;8.13;3.83;;;;;;;17.57;100.00;101044.09;2111441;28;20050;-69
2023/05/20 00:17:18;;;;;;;9.60;4.00;;;;;;;17.58;100.00;101045.00;2100687;28;20420;-69
2023/05/20 00:18:40;;;;;;;8.63;4.13;;;;;;;17.58;100.00;101029.84;2089129;28;20136;-70
2023/05/20 00:20:04;;;;;;;6.97;3.97;;;;;;;17.59;100.00;101039.63;2094494;28;20063;-69
2023/05/20 00:21:25;;;;;;;7.90;3.50;;;;;;;17.58;100.00;101032.53;2081285;28;20050;-69
2023/05/20 00:22:47;;;;;;;8.65;3.78;;;;;;;17.57;100.00;101038.75;2105710;27;20487;-70
2023/05/20 00:24:10;;;;;;;7.75;3.65;;;;;;;17.57;100.00;101036.09;2090711;28;20040;-70
2023/05/20 00:25:33;;;;;;;7.15;3.40;;;;;;;17.57;100.00;101029.88;2109300;28;20534;-69
2023/05/20 00:26:55;;;;;;;9.85;3.97;;;;;;;17.57;100.00;101035.22;2097007;28;20032;-70
2023/05/20 00:28:18;;;;;;;8.45;3.88;;;;;;;17.57;100.00;101030.75;2095930;28;20044;-69
2023/05/20 00:29:42;;;;;;;5.93;3.25;;;;;;;17.59;100.00;101036.09;2103434;28;20059;-69
2023/05/20 00:31:05;;;;;;;9.13;3.90;;;;;;;17.55;100.00;101024.53;2087848;28;20120;-70
2023/05/20 00:32:26;;;;;;;6.32;3.90;;;;;;;17.53;100.00;101026.31;2100824;28;20047;-70
2023/05/20 00:33:49;;;;;;;9.23;3.65;;;;;;;17.53;100.00;101024.53;2092392;28;20136;-69
2023/05/20 00:35:10;;;;;;;9.18;3.80;;;;;;;17.53;100.00;101020.97;2084241;28;20126;-70
2023/05/20 00:36:33;;;;;;;7.53;3.75;;;;;;;17.52;100.00;101017.41;2092162;28;20526;-69
2023/05/20 00:37:54;;;;;;;7.88;3.78;;;;;;;17.52;100.00;101020.09;2084673;28;20123;-70
2023/05/20 00:39:17;;;;;;;9.20;3.75;;;;;;;17.51;100.00;101007.66;2102593;28;20059;-70
2023/05/20 00:40:38;;;;;;;8.68;3.88;;;;;;;17.52;100.00;101014.75;2091862;28;20076;-70
2023/05/20 00:42:02;;;;;;;7.60;4.03;;;;;;;17.51;100.00;101010.34;2094444;28;20150;-69
2023/05/20 00:43:25;;;;;;;6.30;3.53;;;;;;;17.51;100.00;101015.69;2087603;28;20052;-69
2023/05/20 00:44:49;;;;;;;6.35;3.78;;;;;;;17.51;100.00;101010.34;2086598;28;20063;-70
2023/05/20 00:46:11;;;;;;;7.80;3.88;;;;;;;17.51;100.00;101025.47;2075366;28;20482;-70
2023/05/20 00:47:35;;;;;;;;;;;;;;;17.48;100.00;101020.13;2082077;28;20072;-69
2023/05/20 00:48:57;;;;;;;7.30;3.97;;;;;;;17.46;100.00;101028.16;2092362;28;19944;-69
2023/05/20 00:50:20;;;;;;;8.73;4.35;;;;;;;17.47;100.00;101021.91;2084670;28;20489;-70
2023/05/20 00:51:43;;;;;;;7.95;4.35;;;;;;;17.49;100.00;101027.25;2086334;28;20049;-69
2023/05/20 00:53:06;;;;;;;7.90;3.97;;;;;;;17.49;100.00;101021.91;2086469;28;20045;-69
2023/05/20 00:54:29;;;;;;;10.13;4.03;;;;;;;17.47;100.00;101018.38;2102797;28;20419;-70
2023/05/20 00:55:51;;;;;;;6.97;3.17;;;;;;;17.47;100.00;101015.69;2083291;28;20091;-69
2023/05/20 00:57:13;;;;;;;8.73;3.78;;;;;;;17.47;100.00;101008.56;2092157;28;20052;-70
2023/05/20 00:58:36;;;;;;;8.00;3.78;;;;;;;17.47;100.00;101011.25;2085925;28;20052;-70
2023/05/20 01:00:02;;;;;;;7.43;4.05;;;;;;;17.46;100.00;101009.47;2091793;28;20114;-69
2023/05/20 01:01:25;;;;;;;9.18;4.03;;;;;;;17.46;100.00;101000.56;2085453;28;20037;-69
2023/05/20 01:02:46;;;;;;;11.43;4.20;;;;;;;17.45;100.00;101005.06;2084793;28;20532;-70
2023/05/20 01:04:09;;;;;;;9.98;4.10;;;;;;;17.43;100.00;101003.28;2094111;28;20052;-70
2023/05/20 01:05:32;;;;;;;7.85;4.10;;;;;;;17.41;100.00;101007.75;2096216;28;20049;-70
2023/05/20 01:06:54;;;;;;;8.20;4.05;;;;;;;17.39;100.00;101007.75;2086257;28;20044;-70
2023/05/20 01:08:17;;;;;;;8.02;3.80;;;;;;;17.38;100.00;101003.34;2099559;28;20109;-69
2023/05/20 01:09:40;;;;;;;7.78;4.05;;;;;;;17.36;100.00;100999.78;2083143;28;20463;-69
2023/05/20 01:11:08;;;;;;;10.38;4.00;;;;;;;17.36;100.00;100998.91;2083411;28;20045;-69
2023/05/20 01:12:36;;;;;;;7.60;4.00;;;;;;;17.34;100.00;100996.22;2098852;28;20412;-69
2023/05/20 01:14:03;;;;;;;8.30;4.00;;;;;;;17.34;100.00;101006.91;2096207;28;20056;-70
2023/05/20 01:15:28;;;;;;;6.43;3.60;;;;;;;17.34;100.00;101006.91;2093169;28;20060;-70
2023/05/20 01:16:50;;;;;;;8.60;3.90;;;;;;;17.36;100.00;101010.47;2087750;28;20489;-70
2023/05/20 01:18:17;;;;;;;10.63;3.85;;;;;;;17.38;100.00;101014.00;2086579;28;20041;-70
2023/05/20 01:19:42;;;;;;;10.02;4.20;;;;;;;17.40;100.00;101008.63;2083788;28;20056;-70
2023/05/20 01:21:08;;;;;;;7.15;3.95;;;;;;;17.40;100.00;101006.84;2084439;28;20096;-70
2023/05/20 01:22:32;;;;;;;9.10;3.55;;;;;;;17.38;100.00;101002.44;2085711;28;20599;-69
2023/05/20 01:23:53;;;;;;;7.93;4.35;;;;;;;17.36;100.00;101002.44;2108000;28;20038;-70
2023/05/20 01:25:16;;;;;;;6.35;3.80;;;;;;;17.35;100.00;100998.00;2099728;28;20147;-70
2023/05/20 01:26:40;;;;;;;8.90;3.80;;;;;;;17.34;100.00;100998.91;2095985;28;20408;-70
2023/05/20 01:28:03;;;;;;;7.47;4.00;;;;;;;17.34;100.00;100998.00;2096222;28;20040;-70
2023/05/20 01:29:25;;;;;;;7.65;3.92;;;;;;;17.33;100.00;100990.91;2094139;28;20074;-69
2023/05/20 01:30:53;;;;;;;8.60;4.45;;;;;;;17.33;100.00;100982.91;2093457;28;20063;-69
2023/05/20 01:32:19;;;;;;;9.00;4.40;;;;;;;17.35;100.00;100987.34;2086733;28;20059;-70
2023/05/20 01:33:43;;;;;;;9.73;4.00;;;;;;;17.35;100.00;100984.66;2081426;28;20055;-70
2023/05/20 01:35:07;;;;;;;8.65;4.22;;;;;;;17.37;100.00;100977.53;2080782;28;20052;-70
2023/05/20 01:36:31;;;;;;;7.38;3.53;;;;;;;17.37;100.00;100977.53;2082982;28;20044;-70
2023/05/20 01:37:56;;;;;;;9.00;4.13;;;;;;;17.38;100.00;100979.31;2082954;28;20049;-69
2023/05/20 01:39:20;;;;;;;7.22;3.95;;;;;;;17.35;100.00;100982.00;2102768;28;20130;-69
2023/05/20 01:40:43;;;;;;;9.98;3.97;;;;;;;17.35;100.00;100979.31;2081067;28;20449;-70
2023/05/20 01:42:08;;;;;;;8.70;4.25;;;;;;;17.34;100.00;100968.66;2093627;28;20072;-69
2023/05/20 01:43:31;;;;;;;7.28;3.97;;;;;;;17.36;100.00;100967.75;2081917;28;20053;-70
2023/05/20 01:44:54;;;;;;;11.80;4.22;;;;;;;17.36;100.00;100958.88;2089353;28;20044;-70
2023/05/20 01:46:15;;;;;;;7.28;3.90;;;;;;;17.37;100.00;100957.97;2084723;28;20374;-70
2023/05/20 01:47:38;;;;;;;6.45;3.90;;;;;;;17.37;100.00;100961.53;2090142;28;20067;-69
2023/05/20 01:48:59;;;;;;;7.22;4.45;;;;;;;17.37;100.00;100958.84;2086227;28;20041;-69
2023/05/20 01:50:22;;;;;;;8.15;4.10;;;;;;;17.39;100.00;100967.72;2103691;28;20077;-70
2023/05/20 01:51:43;;;;;;;9.45;4.70;;;;;;;17.40;100.00;100965.94;2098541;28;20044;-70
2023/05/20 01:53:08;;;;;;;7.38;3.80;;;;;;;17.40;100.00;100974.81;2086093;28;20414;-70
2023/05/20 01:54:29;;;;;;;7.70;4.25;;;;;;;17.38;100.00;100973.97;2091758;28;20067;-69
2023/05/20 01:55:52;;;;;;;9.65;4.57;;;;;;;17.37;100.00;100958.84;2080872;28;20124;-70
2023/05/20 01:57:14;;;;;;;7.85;4.20;;;;;;;17.35;100.00;100957.97;2101911;28;20143;-69
2023/05/20 01:58:37;;;;;;;7.05;4.00;;;;;;;17.32;100.00;100954.47;2089500;28;20059;-70
2023/05/20 01:59:59;;;;;;;9.30;4.15;;;;;;;17.29;100.00;100949.13;2091387;28;20044;-70
2023/05/20 02:01:21;;;;;;;8.02;4.45;;;;;;;17.27;100.00;100957.16;2085836;28;20051;-69
2023/05/20 02:02:43;;;;;;;8.02;4.10;;;;;;;17.25;100.00;100958.97;2107732;28;20051;-69
2023/05/20 02:04:06;;;;;;;8.13;4.10;;;;;;;17.23;100.00;100958.09;2090907;28;20087;-69
2023/05/20 02:05:28;;;;;;;8.15;4.18;;;;;;;17.24;100.00;100957.19;2085543;28;20052;-70
2023/05/20 02:06:50;;;;;;;6.57;4.30;;;;;;;17.24;100.00;100951.84;2083055;28;20049;-69
2023/05/20 02:08:14;;;;;;;7.95;4.32;;;;;;;17.23;100.00;100952.75;2107740;28;20092;-70
2023/05/20 02:09:36;;;;;;;8.27;4.47;;;;;;;17.23;100.00;100943.88;2090586;28;20123;-70
2023/05/20 02:10:59;;;;;;;8.93;4.38;;;;;;;17.23;100.00;100954.53;2076941;28;20088;-70
2023/05/20 02:12:21;;;;;;;9.00;4.47;;;;;;;17.21;100.00;100941.19;2080245;28;20052;-69
2023/05/20 02:13:44;;;;;;;9.32;4.40;;;;;;;17.20;100.00;100939.41;2091198;28;20053;-70
2023/05/20 02:15:07;;;;;;;8.98;4.13;;;;;;;17.19;100.00;100936.78;2079722;28;20525;-70
2023/05/20 02:16:30;;;;;;;9.15;4.57;;;;;;;17.18;100.00;100943.91;2091883;28;20048;-70
2023/05/20 02:17:53;;;;;;;8.73;4.30;;;;;;;17.18;100.00;100941.25;2080078;28;20045;-69
2023/05/20 02:19:22;;;;;;;8.68;4.05;;;;;;;17.17;100.00;100941.25;2093444;28;20048;-69
2023/05/20 02:20:43;;;;;;;8.07;4.35;;;;;;;17.15;100.00;100949.25;2090281;28;20448;-69
2023/05/20 02:22:07;;;;;;;7.53;4.65;;;;;;;17.13;100.00;100943.06;2093656;28;20114;-70
2023/05/20 02:23:31;;;;;;;7.13;4.20;;;;;;;17.11;100.00;100942.19;2091260;28;20040;-69
2023/05/20 02:24:54;;;;;;;7.72;4.47;;;;;;;17.10;100.00;100941.31;2085862;28;20114;-69
2023/05/20 02:26:15;;;;;;;7.75;4.63;;;;;;;17.12;100.00;100943.97;2084939;28;20143;-70
2023/05/20 02:27:38;;;;;;;9.25;4.65;;;;;;;17.13;100.00;100943.06;2090068;28;20510;-70
2023/05/20 02:29:00;;;;;;;8.90;4.40;;;;;;;17.15;100.00;100949.25;2088301;28;20496;-69
2023/05/20 02:30:22;;;;;;;9.02;4.45;;;;;;;17.14;100.00;100950.16;2085402;28;20382;-69
2023/05/20 02:31:45;;;;;;;7.05;3.70;;;;;;;17.14;100.00;100950.16;2081069;28;20049;-69
2023/05/20 02:33:07;;;;;;;13.20;4.60;;;;;;;17.14;100.00;100945.69;2090525;28;20047;-69
2023/05/20 02:34:30;;;;;;;8.70;4.47;;;;;;;17.16;100.00;100943.03;2093843;28;20041;-69
2023/05/20 02:35:52;;;;;;;9.48;4.88;;;;;;;17.18;100.00;100948.34;2079803;28;20099;-69
2023/05/20 02:37:14;;;;;;;7.50;4.82;;;;;;;17.17;100.00;100949.25;2082199;28;20068;-70
2023/05/20 02:38:37;;;;;;;9.15;4.15;;;;;;;17.16;100.00;100956.38;2091313;28;20085;-70
2023/05/20 02:40:00;;;;;;;6.40;4.40;;;;;;;17.16;100.00;100951.03;2087012;28;20048;-69
2023/05/20 02:41:22;;;;;;;10.73;4.65;;;;;;;17.18;100.00;100954.59;2080272;28;20136;-70
2023/05/20 02:42:45;;;;;;;8.93;4.63;;;;;;;17.19;100.00;100955.47;2083823;28;20048;-69
2023/05/20 02:44:08;;;;;;;9.52;4.80;;;;;;;17.17;100.00;100952.81;2086986;28;20059;-70
2023/05/20 02:45:30;;;;;;;8.10;4.70;;;;;;;17.15;100.00;100943.91;2082226;28;20056;-70
2023/05/20 02:46:51;;;;;;;8.18;5.07;;;;;;;17.13;100.00;100943.94;2085486;28;20037;-69
2023/05/20 02:48:15;;;;;;;8.02;4.65;;;;;;;17.11;100.00;100950.19;2098327;28;20043;-69
2023/05/20 02:49:36;;;;;;;10.80;4.63;;;;;;;17.10;100.00;100948.41;2084136;28;20595;-69
2023/05/20 02:50:59;;;;;;;8.75;5.07;;;;;;;17.09;100.00;100942.19;2093387;28;20147;-69
2023/05/20 02:52:21;;;;;;;7.43;4.65;;;;;;;17.08;100.00;100945.75;2091089;28;20056;-70
2023/05/20 02:53:45;;;;;;;8.10;4.32;;;;;;;17.07;100.00;100941.31;2080106;28;20045;-69
2023/05/20 02:55:08;;;;;;;10.00;4.95;;;;;;;17.05;100.00;100939.56;2090177;28;20064;-70
2023/05/20 02:56:31;;;;;;;8.40;4.60;;;;;;;17.03;100.00;100944.03;2088211;28;20507;-69
2023/05/20 02:57:53;;;;;;;9.48;5.00;;;;;;;17.02;100.00;100944.91;2082843;28;20052;-69
2023/05/20 02:59:15;;;;;;;8.75;4.68;;;;;;;17.03;100.00;100944.03;2081898;28;20080;-69
2023/05/20 03:00:39;;;;;;;8.23;4.90;;;;;;;17.04;100.00;100948.47;2081987;28;20053;-68
2023/05/20 03:02:02;;;;;;;10.38;5.18;;;;;;;17.04;100.00;100952.03;2076372;28;20050;-70
2023/05/20 03:03:25;;;;;;;9.15;5.18;;;;;;;17.04;100.00;100944.03;2082774;28;20074;-70
2023/05/20 03:04:47;;;;;;;14.07;4.97;;;;;;;17.04;100.00;100949.34;2084613;28;20052;-70
2023/05/20 03:06:09;;;;;;;9.07;5.00;;;;;;;17.03;100.00;100944.91;2082699;28;20044;-70
2023/05/20 03:07:33;;;;;;;10.77;5.20;;;;;;;17.05;100.00;100953.81;2089917;28;20053;-70
2023/05/20 03:08:57;;;;;;;8.63;4.93;;;;;;;17.05;100.00;100955.59;2104270;28;20545;-70
2023/05/20 03:10:19;;;;;;;9.05;4.55;;;;;;;17.05;100.00;100955.59;2082062;28;20444;-69
2023/05/20 03:11:41;;;;;;;9.48;4.97;;;;;;;17.05;100.00;100955.59;2080303;28;20045;-69
2023/05/20 03:13:08;;;;;;;13.85;5.57;;;;;;;17.05;100.00;100948.47;2089311;28;22212;-69
2023/05/20 03:14:31;;;;;;;10.30;4.95;;;;;;;17.06;100.00;100958.25;2085406;28;20045;-70
2023/05/20 03:15:54;;;;;;;11.05;5.47;;;;;;;17.06;100.00;100958.25;2101695;28;20087;-70
2023/05/20 03:17:15;;;;;;;7.05;5.15;;;;;;;17.05;100.00;100961.81;2075800;28;20041;-69
2023/05/20 03:18:39;;;;;;;10.55;5.25;;;;;;;17.02;100.00;100968.94;2077298;28;20146;-70
2023/05/20 03:20:01;;;;;;;9.45;5.07;;;;;;;16.96;100.00;100971.63;2084112;28;20053;-70
2023/05/20 03:21:24;;;;;;;9.57;5.18;;;;;;;16.93;100.00;100974.34;2085440;28;20037;-69
2023/05/20 03:22:45;;;;;;;10.27;5.15;;;;;;;16.92;100.00;100977.91;2090803;28;20040;-69
2023/05/20 03:24:09;;;;;;;9.27;5.40;;;;;;;16.91;100.00;100970.78;2081578;28;20061;-69
2023/05/20 03:25:31;;;;;;;7.85;4.38;;;;;;;16.92;100.00;100986.78;2083106;28;20045;-70
2023/05/20 03:26:53;;;;;;;9.73;5.32;;;;;;;16.93;100.00;100990.34;2083450;28;20059;-69
2023/05/20 03:28:15;;;;;;;10.05;5.28;;;;;;;16.94;100.00;100989.41;2091019;28;20072;-69
2023/05/20 03:29:37;;;;;;;7.90;5.28;;;;;;;16.94;100.00;100987.66;2083896;28;20057;-69
2023/05/20 03:31:01;;;;;;;12.50;5.20;;;;;;;16.96;100.00;100987.63;2086122;28;20119;-69
2023/05/20 03:32:24;;;;;;;9.10;5.88;;;;;;;16.98;100.00;100985.84;2085581;28;20116;-69
2023/05/20 03:33:46;;;;;;;8.70;5.07;;;;;;;17.01;100.00;100992.03;2081878;28;20669;-70
2023/05/20 03:35:09;;;;;;;10.40;5.00;;;;;;;17.04;100.00;100981.38;2080618;28;20569;-69
2023/05/20 03:36:32;;;;;;;10.48;5.28;;;;;;;17.07;100.00;100981.31;2082983;28;20140;-69
2023/05/20 03:37:53;;;;;;;9.93;5.57;;;;;;;17.13;100.00;100972.41;2083959;28;20048;-69
2023/05/20 03:39:20;;;;;;;8.93;5.13;;;;;;;17.19;100.00;100968.81;2078542;28;20160;-70
2023/05/20 03:40:42;;;;;;;10.15;5.03;;;;;;;17.25;100.00;100968.75;2103736;28;20055;-70
2023/05/20 03:42:05;;;;;;;7.65;4.53;;;;;;;17.31;100.00;100963.38;2096712;28;20106;-70
2023/05/20 03:43:28;;;;;;;8.15;4.30;;;;;;;17.34;100.00;100964.22;2089372;28;20048;-69
2023/05/20 03:44:49;;;;;;;10.20;5.00;;;;;;;17.40;100.00;100956.16;2086041;28;20045;-70
2023/05/20 03:46:12;;;;;;;7.95;4.47;;;;;;;17.48;100.00;100961.41;2083273;28;20041;-69
2023/05/20 03:47:33;;;;;;;10.23;5.47;;;;;;;17.56;100.00;100964.03;2084312;28;20049;-69
2023/05/20 03:48:55;;;;;;;7.13;4.97;;;;;;;17.63;100.00;100960.41;2083524;28;20563;-70
2023/05/20 03:50:18;;;;;;;9.20;5.05;;;;;;;17.71;100.00;100970.13;2089879;28;21119;-70
2023/05/20 03:51:39;;;;;;;8.07;4.95;;;;;;;17.79;100.00;100962.00;2089471;28;20053;-69
2023/05/20 03:53:06;;;;;;;8.20;4.43;;;;;;;17.83;100.00;100958.44;2084360;28;20127;-69
2023/05/20 03:54:36;;;;;;;10.30;5.22;;;;;;;17.90;100.00;100957.47;2100743;28;20052;-69
2023/05/20 03:55:58;;;;;;;9.18;4.75;;;;;;;17.95;100.00;100970.75;2091650;28;20044;-69
2023/05/20 03:57:20;;;;;;;14.80;4.97;;;;;;;18.04;100.00;100962.66;2101033;28;20048;-69
2023/05/20 03:58:43;;;;;;;9.88;4.93;;;;;;;18.11;100.00;100964.34;2090806;28;20045;-70
2023/05/20 04:00:09;;;;;;;8.18;5.13;;;;;;;18.18;100.00;100958.03;2089921;28;20080;-69
2023/05/20 04:01:38;;;;;;;9.82;5.13;;;;;;;18.26;100.00;100953.44;2106060;28;20159;-69
2023/05/20 04:03:00;;;;;;;15.85;5.47;;;;;;;18.35;100.00;100955.13;2099596;28;20047;-69
2023/05/20 04:04:22;;;;;;;8.65;4.75;;;;;;;18.41;100.00;100955.94;2083370;28;20041;-70
2023/05/20 04:05:45;;;;;;;13.07;5.63;;;;;;;18.48;100.00;100943.38;2094922;28;20131;-70
2023/05/20 04:07:12;;;;;;;11.35;4.75;;;;;;;18.53;100.00;100950.41;2095974;28;20064;-70
2023/05/20 04:08:36;;;;;;;8.93;4.53;;;;;;;18.58;100.00;100945.91;2089255;28;20047;-70
2023/05/20 04:09:59;;;;;;;8.27;4.47;;;;;;;18.67;100.00;100951.13;2099489;28;20043;-70
2023/05/20 04:11:21;;;;;;;9.05;4.47;;;;;;;18.74;100.00;100946.59;2081343;28;20045;-70
2023/05/20 04:12:44;;;;;;;10.05;4.40;;;;;;;18.83;100.00;100951.81;2094822;28;20044;-69
2023/05/20 04:14:07;;;;;;;10.68;5.03;;;;;;;18.91;100.00;100959.69;2081029;28;20049;-70
2023/05/20 04:15:28;;;;;;;8.38;4.55;;;;;;;19.01;100.00;100966.69;2092628;28;20101;-70
2023/05/20 04:16:53;;;;;;;6.78;4.57;;;;;;;19.11;100.00;100965.59;2081071;28;20045;-69
2023/05/20 04:18:15;;;;;;;10.35;5.32;;;;;;;19.19;100.00;100962.81;2078592;28;20461;-70
2023/05/20 04:19:39;;;;;;;9.48;4.85;;;;;;;19.30;100.00;100967.06;2084278;28;20056;-70
2023/05/20 04:21:01;;;;;;;8.50;4.90;;;;;;;19.38;100.00;100961.59;2100796;28;20078;-70
2023/05/20 04:22:23;;;;;;;11.55;4.90;;;;;;;19.48;100.00;100948.06;2089066;28;20068;-69
2023/05/20 04:23:45;;;;;;;8.68;4.50;;;;;;;19.56;100.00;100958.63;2108993;28;20039;-70
2023/05/20 04:25:08;;;;;;;7.90;4.07;;;;;;;19.64;100.00;100954.00;2091761;28;20052;-70
2023/05/20 04:26:31;;;;;;;9.20;4.75;;;;;;;19.71;100.00;100966.38;2094771;28;20462;-70
2023/05/20 04:27:53;;;;;;;8.88;4.43;;;;;;;19.79;100.00;100963.56;2086613;28;20508;-70
2023/05/20 04:29:15;;;;;;;9.00;4.22;;;;;;;19.87;100.00;100967.88;2083263;28;20040;-69
2023/05/20 04:30:38;;;;;;;7.63;4.30;;;;;;;19.96;100.00;100977.50;2090152;28;20159;-69
2023/05/20 04:32:00;;;;;;;7.50;4.18;;;;;;;20.06;100.00;100965.72;2097817;28;20109;-70
2023/05/20 04:33:22;;;;;;;9.95;4.05;;;;;;;20.13;100.00;100959.31;2091836;28;20114;-70
2023/05/20 04:34:44;;;;;;;9.07;4.28;;;;;;;20.24;100.00;100961.75;2084120;28;20044;-70
2023/05/20 04:36:14;;;;;;;8.85;3.83;;;;;;;20.35;100.00;100972.31;2101774;28;20063;-69
2023/05/20 04:37:37;;;;;;;6.25;4.15;;;;;;;20.44;100.00;100962.25;2087849;28;20116;-70
2023/05/20 04:39:00;;;;;;;7.05;4.10;;;;;;;20.53;100.00;100966.53;2085332;28;20060;-70
2023/05/20 04:40:26;;;;;;;10.73;4.13;;;;;;;20.64;100.00;100964.50;2083090;28;20459;-70
2023/05/20 04:41:49;;;;;;;6.43;3.63;;;;;;;20.74;100.00;100967.88;2084725;28;20508;-70
2023/05/20 04:43:10;;;;;;;7.03;3.83;;;;;;;20.83;100.00;100971.22;2079246;28;20037;-70
2023/05/20 04:44:33;;;;;;;8.77;4.35;;;;;;;20.94;100.00;100970.94;2078262;28;20046;-70
2023/05/20 04:45:56;;;;;;;9.82;4.30;;;;;;;21.04;100.00;100968.03;2091026;28;20079;-71
2023/05/20 04:47:17;;;;;;;6.07;3.85;;;;;;;21.11;100.00;100968.75;2086552;28;20049;-71
2023/05/20 04:48:40;;;;;;;6.90;3.40;;;;;;;21.18;100.00;100972.22;2083784;28;20045;-71
2023/05/20 04:50:03;;;;;;;8.07;3.70;;;;;;;21.24;100.00;100964.88;2081696;28;20445;-71
2023/05/20 04:51:26;;;;;;;8.50;3.85;;;;;;;21.31;100.00;100961.13;2089979;28;20037;-71
2023/05/20 04:52:49;;;;;;;5.85;3.40;;;;;;;21.40;100.00;100965.34;2085414;28;20150;-70
2023/05/20 04:54:10;;;;;;;12.38;4.22;;;;;;;21.46;100.00;100962.53;2080276;28;20076;-70
2023/05/20 04:55:36;;;;;;;9.90;3.72;;;;;;;21.55;100.00;100972.16;2093936;28;20044;-70
2023/05/20 04:56:58;;;;;;;7.53;3.72;;;;;;;21.65;100.00;100965.63;2082279;28;20071;-70
2023/05/20 04:58:23;;;;;;;9.13;3.92;;;;;;;21.74;100.00;100965.34;2096768;28;20158;-70
2023/05/20 04:59:45;;;;;;;7.47;3.70;;;;;;;21.81;100.00;100961.59;2084982;28;20056;-70
2023/05/20 05:01:06;;;;;;;8.82;4.40;;;;;;;21.86;100.00;100967.72;2088195;28;20052;-70
2023/05/20 05:02:29;;;;;;;7.32;3.70;;;;;;;21.92;100.00;100966.69;2085921;28;20033;-70
2023/05/20 05:03:50;;;;;;;6.97;3.53;;;;;;;21.94;100.00;100971.06;2082617;28;20071;-71
2023/05/20 05:05:13;;;;;;;7.22;3.92;;;;;;;21.95;100.00;100966.59;2088655;28;20512;-72
2023/05/20 05:06:35;;;;;;;6.78;4.03;;;;;;;21.94;100.00;100965.69;2079367;28;20057;-70
2023/05/20 05:07:58;;;;;;;8.50;4.47;;;;;;;21.96;100.00;100953.13;2092150;28;20040;-71
2023/05/20 05:09:19;;;;;;;9.77;4.03;;;;;;;22.01;100.00;100955.69;2084470;28;20735;-71
2023/05/20 05:10:45;;;;;;;8.45;4.45;;;;;;;22.09;100.00;100948.28;2082947;28;20670;-71
2023/05/20 05:12:08;;;;;;;10.35;3.88;;;;;;;22.13;100.00;100942.78;2083766;28;20102;-71
2023/05/20 05:13:30;;;;;;;8.32;4.30;;;;;;;22.20;100.00;100941.66;2088060;28;20064;-71
2023/05/20 05:14:53;;;;;;;9.60;4.65;;;;;;;22.28;100.00;100946.81;2088899;28;20174;-71
2023/05/20 05:16:15;;;;;;;9.43;4.15;;;;;;;22.38;100.00;100928.63;2082140;28;20063;-71
2023/05/20 05:17:37;;;;;;;9.15;4.20;;;;;;;22.47;100.00;100931.00;2081118;28;20057;-71
2023/05/20 05:19:00;;;;;;;9.48;3.70;;;;;;;22.56;100.00;100936.13;2094400;28;20039;-71
2023/05/20 05:20:24;;;;;;;7.43;4.00;;;;;;;22.61;98.68;100939.53;2085709;28;20052;-71
2023/05/20 05:21:48;;;;;;;9.23;4.15;;;;;;;22.70;98.94;100947.34;2095225;28;20036;-71
2023/05/20 05:23:09;;;;;;;8.38;4.00;;;;;;;22.80;98.17;100946.13;2085760;28;20049;-70
2023/05/20 05:24:32;;;;;;;8.23;4.25;;;;;;;22.88;96.24;100946.78;2093536;28;20194;-71
2023/05/20 05:25:57;;;;;;;8.70;4.20;;;;;;;22.93;94.66;100952.91;2098108;28;20056;-71
2023/05/20 05:27:18;;;;;;;9.55;3.92;;;;;;;22.98;93.72;100956.31;2086879;28;20044;-71
2023/05/20 05:28:42;;;;;;;8.23;3.85;;;;;;;23.02;93.62;100946.34;2078666;28;20084;-71
2023/05/20 05:30:06;;;;;;;9.27;3.95;;;;;;;23.12;94.17;100938.81;2100684;28;20044;-71
2023/05/20 05:31:29;;;;;;;9.77;3.72;;;;;;;23.19;94.03;100948.47;2089457;28;20064;-71
2023/05/20 05:32:51;;;;;;;10.02;4.20;;;;;;;23.28;93.59;100932.88;2083686;28;20057;-71
2023/05/20 05:34:14;;;;;;;7.57;3.97;;;;;;;23.40;93.65;100936.97;2083210;28;20048;-71
2023/05/20 05:35:35;;;;;;;7.93;4.10;;;;;;;23.49;91.07;100925.03;2089261;28;20550;-71
2023/05/20 05:36:58;;;;;;;7.18;3.85;;;;;;;23.54;90.02;100940.09;2085813;28;20601;-71
2023/05/20 05:38:19;;;;;;;7.25;4.25;;;;;;;23.55;86.24;100941.88;2086775;28;20067;-71
2023/05/20 05:39:42;;;;;;;8.18;3.90;;;;;;;23.59;86.65;100953.41;2094236;28;20044;-71
2023/05/20 05:41:06;;;;;;;9.63;4.20;;;;;;;23.64;85.10;100941.53;2082371;28;20045;-71
2023/05/20 05:42:28;;;;;;;9.30;4.03;;;;;;;23.72;83.55;100933.16;2075365;28;20069;-71
2023/05/20 05:43:51;;;;;;;8.63;4.30;;;;;;;23.77;82.22;100931.19;2080217;28;20497;-71
2023/05/20 05:45:14;;;;;;;6.72;3.92;;;;;;;23.87;82.02;100932.63;2083549;28;20068;-71
2023/05/20 05:46:35;;;;;;;6.70;3.60;;;;;;;23.95;80.13;100935.94;2081277;28;20048;-71
2023/05/20 05:47:58;;;;;;;8.23;3.80;;;;;;;24.01;77.89;100933.00;2091434;28;20162;-71
2023/05/20 05:49:21;;;;;;;7.90;4.20;;;;;;;24.07;78.87;100939.97;2080460;28;20071;-71
2023/05/20 05:50:45;;;;;;;8.45;3.75;;;;;;;24.19;78.43;100940.44;2097585;28;20117;-71
2023/05/20 05:52:09;;;;;;;6.03;3.70;;;;;;;24.34;76.28;100944.38;2081561;28;20067;-70
2023/05/20 05:53:31;;;;;;;8.20;4.43;;;;;;;24.44;75.57;100947.59;2093239;28;20049;-71
2023/05/20 05:54:54;;;;;;;10.57;4.15;;;;;;;24.61;75.26;100951.38;2089970;28;20041;-70
2023/05/20 05:56:18;;;;;;;8.45;4.50;;;;;;;24.76;74.42;100943.63;2082833;28;20064;-70
2023/05/20 05:57:41;;;;;;;12.15;4.30;;;;;;;24.97;73.02;100959.00;2085884;28;20053;-70
2023/05/20 05:59:04;;;;;;;9.48;4.28;;;;;;;25.16;71.07;100953.72;2084156;28;20045;-71
2023/05/20 06:00:26;;;;;;;9.15;3.80;;;;;;;25.37;70.13;100942.88;2084581;28;20061;-71
2023/05/20 06:01:49;;;;;;;6.50;3.88;;;;;;;25.56;67.78;100944.78;2080406;28;20133;-71
2023/05/20 06:03:11;;;;;;;11.88;4.60;;;;;;;25.70;65.76;100937.00;2096179;28;20055;-71
2023/05/20 06:04:33;;;;;;;6.97;4.00;;;;;;;25.82;64.03;100935.56;2082740;28;20053;-71
2023/05/20 06:05:55;;;;;;;11.48;4.90;;;;;;;25.93;62.43;100927.88;2099495;28;20496;-70
2023/05/20 06:07:17;;;;;;;11.02;4.57;;;;;;;25.98;60.76;100929.41;2096490;28;20053;-71
2023/05/20 06:08:40;;;;;;;7.82;4.85;;;;;;;26.07;59.09;100925.38;2094057;28;20638;-71
2023/05/20 06:10:02;;;;;;;9.57;4.63;;;;;;;26.17;58.46;100913.19;2079802;28;20045;-71
2023/05/20 06:11:26;;;;;;;7.10;4.18;;;;;;;26.27;57.36;100921.78;2075850;28;20405;-70
2023/05/20 06:12:48;;;;;;;8.23;4.40;;;;;;;26.29;56.60;100926.19;2080263;28;20084;-71
2023/05/20 06:14:10;;;;;;;9.68;4.38;;;;;;;26.35;56.18;100927.72;2082643;28;20037;-71
2023/05/20 06:15:32;;;;;;;8.38;3.80;;;;;;;26.39;55.19;100923.91;2077467;28;20143;-71
2023/05/20 06:16:54;;;;;;;10.57;4.20;;;;;;;26.47;55.56;100921.72;2100098;28;20541;-71
2023/05/20 06:18:17;;;;;;;7.78;4.80;;;;;;;26.53;55.54;100927.72;2086611;28;20560;-70
2023/05/20 06:19:40;;;;;;;8.25;4.07;;;;;;;26.60;54.96;100920.19;2078550;28;20068;-70
2023/05/20 06:21:03;;;;;;;9.80;5.30;;;;;;;26.57;53.57;100925.78;2089045;28;20052;-71